sensor_id;sensor_type;location;lat;lon;timestamp;P1;durP1;ratioP1;P2;durP2;ratioP2
56820;SDS011;42702;50.178;20.992;2022-12-07T00:01:42;11.80;;;6.10;;
56820;SDS011;42702;50.178;20.992;2022-12-07T00:04:12;15.60;;;8.90;;
56820;SDS011;42702;50.178;20.992;2022-12-07T00:06:43;11.60;;;7.10;;
56820;SDS011;42702;50.178;20.992;2022-12-07T00:09:13;18.80;;;8.90;;
56820;SDS011;42702;50.178;20.992;2022-12-07T00:11:42;16.50;;;9.00;;
56820;SDS011;42702;50.178;20.992;2022-12-07T00:14:13;10.90;;;6.40;;
56820;SDS011;42702;50.178;20.992;2022-12-07T00:16:43;13.30;;;7.30;;
56820;SDS011;42702;50.178;20.992;2022-12-07T00:19:12;12.30;;;7.40;;
56820;SDS011;42702;50.178;20.992;2022-12-07T00:21:41;19.90;;;10.50;;
56820;SDS011;42702;50.178;20.992;2022-12-07T00:24:10;12.70;;;7.10;;
56820;SDS011;42702;50.178;20.992;2022-12-07T00:26:41;18.60;;;10.20;;
56820;SDS011;42702;50.178;20.992;2022-12-07T00:29:17;15.00;;;6.90;;
56820;SDS011;42702;50.178;20.992;2022-12-07T00:31:47;15.50;;;8.20;;
56820;SDS011;42702;50.178;20.992;2022-12-07T00:34:17;11.80;;;6.80;;
56820;SDS011;42702;50.178;20.992;2022-12-07T00:36:47;7.60;;;5.10;;
56820;SDS011;42702;50.178;20.992;2022-12-07T00:39:16;10.80;;;5.70;;
56820;SDS011;42702;50.178;20.992;2022-12-07T00:41:44;12.10;;;7.80;;
56820;SDS011;42702;50.178;20.992;2022-12-07T00:44:13;9.80;;;5.70;;
56820;SDS011;42702;50.178;20.992;2022-12-07T00:46:41;16.10;;;8.10;;
56820;SDS011;42702;50.178;20.992;2022-12-07T00:49:09;15.70;;;8.70;;
56820;SDS011;42702;50.178;20.992;2022-12-07T00:51:37;16.70;;;8.30;;
56820;SDS011;42702;50.178;20.992;2022-12-07T00:54:05;10.30;;;7.60;;
56820;SDS011;42702;50.178;20.992;2022-12-07T00:56:33;16.60;;;8.50;;
56820;SDS011;42702;50.178;20.992;2022-12-07T00:59:02;7.40;;;5.00;;
56820;SDS011;42702;50.178;20.992;2022-12-07T01:01:32;9.50;;;5.70;;
56820;SDS011;42702;50.178;20.992;2022-12-07T01:04:02;10.00;;;5.00;;
56820;SDS011;42702;50.178;20.992;2022-12-07T01:06:31;13.80;;;6.70;;
56820;SDS011;42702;50.178;20.992;2022-12-07T01:08:59;11.40;;;6.10;;
56820;SDS011;42702;50.178;20.992;2022-12-07T01:11:29;11.10;;;5.20;;
56820;SDS011;42702;50.178;20.992;2022-12-07T01:13:58;8.70;;;5.70;;
56820;SDS011;42702;50.178;20.992;2022-12-07T01:16:28;9.40;;;6.30;;
56820;SDS011;42702;50.178;20.992;2022-12-07T01:18:58;13.80;;;6.40;;
56820;SDS011;42702;50.178;20.992;2022-12-07T01:21:31;11.50;;;7.20;;
56820;SDS011;42702;50.178;20.992;2022-12-07T01:24:03;10.80;;;5.90;;
56820;SDS011;42702;50.178;20.992;2022-12-07T01:26:33;11.30;;;6.10;;
56820;SDS011;42702;50.178;20.992;2022-12-07T01:29:01;11.30;;;5.70;;
56820;SDS011;42702;50.178;20.992;2022-12-07T01:31:29;8.80;;;6.20;;
56820;SDS011;42702;50.178;20.992;2022-12-07T01:33:58;5.70;;;4.00;;
56820;SDS011;42702;50.178;20.992;2022-12-07T01:36:29;6.30;;;4.00;;
56820;SDS011;42702;50.178;20.992;2022-12-07T01:39:00;9.10;;;4.60;;
56820;SDS011;42702;50.178;20.992;2022-12-07T01:41:31;11.40;;;7.00;;
56820;SDS011;42702;50.178;20.992;2022-12-07T01:44:07;11.10;;;6.60;;
56820;SDS011;42702;50.178;20.992;2022-12-07T01:46:40;13.10;;;6.30;;
56820;SDS011;42702;50.178;20.992;2022-12-07T01:49:11;14.90;;;6.40;;
56820;SDS011;42702;50.178;20.992;2022-12-07T01:51:43;7.80;;;4.90;;
56820;SDS011;42702;50.178;20.992;2022-12-07T01:54:15;12.60;;;6.80;;
56820;SDS011;42702;50.178;20.992;2022-12-07T01:56:46;13.30;;;7.80;;
56820;SDS011;42702;50.178;20.992;2022-12-07T01:59:19;13.30;;;7.40;;
56820;SDS011;42702;50.178;20.992;2022-12-07T02:01:52;13.80;;;7.30;;
56820;SDS011;42702;50.178;20.992;2022-12-07T02:04:23;10.70;;;7.10;;
56820;SDS011;42702;50.178;20.992;2022-12-07T02:06:52;13.30;;;6.80;;
56820;SDS011;42702;50.178;20.992;2022-12-07T02:09:21;16.00;;;8.80;;
56820;SDS011;42702;50.178;20.992;2022-12-07T02:11:49;15.10;;;7.40;;
56820;SDS011;42702;50.178;20.992;2022-12-07T02:14:18;15.90;;;8.40;;
56820;SDS011;42702;50.178;20.992;2022-12-07T02:19:47;15.00;;;7.90;;
56820;SDS011;42702;50.178;20.992;2022-12-07T02:25:08;17.80;;;9.10;;
56820;SDS011;42702;50.178;20.992;2022-12-07T02:27:52;11.90;;;6.90;;
56820;SDS011;42702;50.178;20.992;2022-12-07T02:30:30;18.40;;;9.40;;
56820;SDS011;42702;50.178;20.992;2022-12-07T02:33:06;15.50;;;8.10;;
56820;SDS011;42702;50.178;20.992;2022-12-07T02:35:51;13.10;;;8.00;;
56820;SDS011;42702;50.178;20.992;2022-12-07T02:38:37;13.80;;;7.00;;
56820;SDS011;42702;50.178;20.992;2022-12-07T02:41:12;10.20;;;6.00;;
56820;SDS011;42702;50.178;20.992;2022-12-07T02:43:46;9.60;;;5.80;;
56820;SDS011;42702;50.178;20.992;2022-12-07T02:46:32;9.90;;;5.50;;
56820;SDS011;42702;50.178;20.992;2022-12-07T02:49:03;12.10;;;6.90;;
56820;SDS011;42702;50.178;20.992;2022-12-07T02:51:38;11.30;;;7.50;;
56820;SDS011;42702;50.178;20.992;2022-12-07T02:54:12;10.60;;;6.50;;
56820;SDS011;42702;50.178;20.992;2022-12-07T03:11:06;10.60;;;6.50;;
56820;SDS011;42702;50.178;20.992;2022-12-07T03:16:52;8.70;;;5.60;;
56820;SDS011;42702;50.178;20.992;2022-12-07T03:19:25;7.00;;;4.50;;
56820;SDS011;42702;50.178;20.992;2022-12-07T03:22:05;12.40;;;6.20;;
56820;SDS011;42702;50.178;20.992;2022-12-07T03:27:27;9.90;;;5.20;;
56820;SDS011;42702;50.178;20.992;2022-12-07T03:30:04;10.50;;;5.70;;
56820;SDS011;42702;50.178;20.992;2022-12-07T03:32:37;8.40;;;6.10;;
56820;SDS011;42702;50.178;20.992;2022-12-07T03:35:22;8.50;;;4.30;;
56820;SDS011;42702;50.178;20.992;2022-12-07T03:38:12;11.80;;;6.60;;
56820;SDS011;42702;50.178;20.992;2022-12-07T03:43:33;8.10;;;5.50;;
56820;SDS011;42702;50.178;20.992;2022-12-07T03:46:12;9.50;;;5.30;;
56820;SDS011;42702;50.178;20.992;2022-12-07T03:51:35;8.90;;;4.90;;
56820;SDS011;42702;50.178;20.992;2022-12-07T03:56:55;8.90;;;5.50;;
56820;SDS011;42702;50.178;20.992;2022-12-07T03:59:25;11.00;;;5.50;;
56820;SDS011;42702;50.178;20.992;2022-12-07T04:01:56;8.00;;;5.40;;
56820;SDS011;42702;50.178;20.992;2022-12-07T04:04:29;5.40;;;4.00;;
56820;SDS011;42702;50.178;20.992;2022-12-07T04:06:58;7.10;;;4.30;;
56820;SDS011;42702;50.178;20.992;2022-12-07T04:09:26;11.10;;;6.40;;
56820;SDS011;42702;50.178;20.992;2022-12-07T04:11:54;9.70;;;5.30;;
56820;SDS011;42702;50.178;20.992;2022-12-07T04:14:22;9.90;;;5.50;;
56820;SDS011;42702;50.178;20.992;2022-12-07T04:16:51;10.90;;;6.40;;
56820;SDS011;42702;50.178;20.992;2022-12-07T04:19:28;12.50;;;7.70;;
56820;SDS011;42702;50.178;20.992;2022-12-07T04:21:58;8.40;;;5.40;;
56820;SDS011;42702;50.178;20.992;2022-12-07T04:24:28;9.60;;;5.30;;
56820;SDS011;42702;50.178;20.992;2022-12-07T04:26:56;10.40;;;6.50;;
56820;SDS011;42702;50.178;20.992;2022-12-07T04:29:24;8.20;;;4.70;;
56820;SDS011;42702;50.178;20.992;2022-12-07T04:31:52;7.40;;;5.20;;
56820;SDS011;42702;50.178;20.992;2022-12-07T04:34:21;9.10;;;4.50;;
56820;SDS011;42702;50.178;20.992;2022-12-07T04:36:49;7.20;;;4.20;;
56820;SDS011;42702;50.178;20.992;2022-12-07T04:39:22;7.90;;;4.40;;
56820;SDS011;42702;50.178;20.992;2022-12-07T04:41:52;7.30;;;4.80;;
56820;SDS011;42702;50.178;20.992;2022-12-07T04:44:21;9.80;;;6.10;;
56820;SDS011;42702;50.178;20.992;2022-12-07T04:46:50;9.30;;;4.60;;
56820;SDS011;42702;50.178;20.992;2022-12-07T04:49:20;10.00;;;5.20;;
56820;SDS011;42702;50.178;20.992;2022-12-07T04:51:49;10.10;;;5.80;;
56820;SDS011;42702;50.178;20.992;2022-12-07T04:54:17;7.10;;;4.70;;
56820;SDS011;42702;50.178;20.992;2022-12-07T04:56:46;9.90;;;3.90;;
56820;SDS011;42702;50.178;20.992;2022-12-07T04:59:14;11.10;;;6.70;;
56820;SDS011;42702;50.178;20.992;2022-12-07T05:01:44;11.30;;;6.40;;
56820;SDS011;42702;50.178;20.992;2022-12-07T05:04:12;12.10;;;6.50;;
56820;SDS011;42702;50.178;20.992;2022-12-07T05:06:40;16.60;;;10.00;;
56820;SDS011;42702;50.178;20.992;2022-12-07T05:09:09;11.50;;;5.50;;
56820;SDS011;42702;50.178;20.992;2022-12-07T05:11:37;9.30;;;5.60;;
56820;SDS011;42702;50.178;20.992;2022-12-07T05:14:10;12.20;;;7.30;;
56820;SDS011;42702;50.178;20.992;2022-12-07T05:16:43;14.90;;;6.70;;
56820;SDS011;42702;50.178;20.992;2022-12-07T05:19:12;10.60;;;5.60;;
56820;SDS011;42702;50.178;20.992;2022-12-07T05:21:41;18.40;;;9.60;;
56820;SDS011;42702;50.178;20.992;2022-12-07T05:24:09;11.90;;;6.80;;
56820;SDS011;42702;50.178;20.992;2022-12-07T05:26:40;11.00;;;6.60;;
56820;SDS011;42702;50.178;20.992;2022-12-07T05:29:10;21.40;;;8.20;;
56820;SDS011;42702;50.178;20.992;2022-12-07T05:31:40;22.60;;;9.70;;
56820;SDS011;42702;50.178;20.992;2022-12-07T05:34:08;9.70;;;6.50;;
56820;SDS011;42702;50.178;20.992;2022-12-07T05:36:37;12.10;;;7.20;;
56820;SDS011;42702;50.178;20.992;2022-12-07T05:39:05;14.40;;;8.00;;
56820;SDS011;42702;50.178;20.992;2022-12-07T05:41:34;16.30;;;8.70;;
56820;SDS011;42702;50.178;20.992;2022-12-07T05:44:21;25.90;;;9.50;;
56820;SDS011;42702;50.178;20.992;2022-12-07T05:46:49;20.00;;;9.70;;
56820;SDS011;42702;50.178;20.992;2022-12-07T05:49:17;21.00;;;9.60;;
56820;SDS011;42702;50.178;20.992;2022-12-07T05:51:46;16.40;;;8.60;;
56820;SDS011;42702;50.178;20.992;2022-12-07T05:54:14;18.80;;;8.20;;
56820;SDS011;42702;50.178;20.992;2022-12-07T05:56:42;14.00;;;7.60;;
56820;SDS011;42702;50.178;20.992;2022-12-07T05:59:10;14.50;;;7.50;;
56820;SDS011;42702;50.178;20.992;2022-12-07T06:01:54;12.70;;;7.30;;
56820;SDS011;42702;50.178;20.992;2022-12-07T06:04:25;12.40;;;7.20;;
56820;SDS011;42702;50.178;20.992;2022-12-07T06:06:57;13.10;;;7.70;;
56820;SDS011;42702;50.178;20.992;2022-12-07T06:09:26;9.70;;;7.10;;
56820;SDS011;42702;50.178;20.992;2022-12-07T06:11:55;14.20;;;7.60;;
56820;SDS011;42702;50.178;20.992;2022-12-07T06:14:43;43.90;;;11.30;;
56820;SDS011;42702;50.178;20.992;2022-12-07T06:17:11;15.50;;;8.50;;
56820;SDS011;42702;50.178;20.992;2022-12-07T06:19:40;13.50;;;5.80;;
56820;SDS011;42702;50.178;20.992;2022-12-07T06:22:09;23.40;;;9.90;;
56820;SDS011;42702;50.178;20.992;2022-12-07T06:24:39;21.20;;;9.90;;
56820;SDS011;42702;50.178;20.992;2022-12-07T06:27:08;37.40;;;13.50;;
56820;SDS011;42702;50.178;20.992;2022-12-07T06:29:37;35.90;;;12.00;;
56820;SDS011;42702;50.178;20.992;2022-12-07T06:32:05;24.10;;;8.40;;
56820;SDS011;42702;50.178;20.992;2022-12-07T06:34:33;18.10;;;10.70;;
56820;SDS011;42702;50.178;20.992;2022-12-07T06:37:02;16.90;;;10.50;;
56820;SDS011;42702;50.178;20.992;2022-12-07T06:39:31;12.10;;;6.40;;
56820;SDS011;42702;50.178;20.992;2022-12-07T06:41:59;19.50;;;8.20;;
56820;SDS011;42702;50.178;20.992;2022-12-07T06:44:27;20.10;;;8.80;;
56820;SDS011;42702;50.178;20.992;2022-12-07T06:46:55;10.80;;;5.30;;
56820;SDS011;42702;50.178;20.992;2022-12-07T06:49:44;25.90;;;12.70;;
56820;SDS011;42702;50.178;20.992;2022-12-07T06:52:12;19.40;;;10.30;;
56820;SDS011;42702;50.178;20.992;2022-12-07T06:54:40;22.60;;;10.60;;
56820;SDS011;42702;50.178;20.992;2022-12-07T06:57:08;23.70;;;11.10;;
56820;SDS011;42702;50.178;20.992;2022-12-07T06:59:36;34.00;;;11.60;;
56820;SDS011;42702;50.178;20.992;2022-12-07T07:02:04;10.40;;;6.30;;
56820;SDS011;42702;50.178;20.992;2022-12-07T07:04:32;19.50;;;8.80;;
56820;SDS011;42702;50.178;20.992;2022-12-07T07:07:00;18.50;;;10.70;;
56820;SDS011;42702;50.178;20.992;2022-12-07T07:09:28;28.20;;;12.10;;
56820;SDS011;42702;50.178;20.992;2022-12-07T07:11:56;15.30;;;6.90;;
56820;SDS011;42702;50.178;20.992;2022-12-07T07:14:24;18.20;;;6.60;;
56820;SDS011;42702;50.178;20.992;2022-12-07T07:16:52;13.80;;;8.70;;
56820;SDS011;42702;50.178;20.992;2022-12-07T07:19:21;20.60;;;10.30;;
56820;SDS011;42702;50.178;20.992;2022-12-07T07:21:49;19.30;;;8.60;;
56820;SDS011;42702;50.178;20.992;2022-12-07T07:24:17;24.70;;;11.50;;
56820;SDS011;42702;50.178;20.992;2022-12-07T07:26:45;31.20;;;10.60;;
56820;SDS011;42702;50.178;20.992;2022-12-07T07:29:13;21.50;;;7.80;;
56820;SDS011;42702;50.178;20.992;2022-12-07T07:31:41;19.90;;;9.30;;
56820;SDS011;42702;50.178;20.992;2022-12-07T07:34:10;13.80;;;7.40;;
56820;SDS011;42702;50.178;20.992;2022-12-07T07:36:38;17.60;;;9.60;;
56820;SDS011;42702;50.178;20.992;2022-12-07T07:39:06;17.00;;;8.30;;
56820;SDS011;42702;50.178;20.992;2022-12-07T07:41:34;18.00;;;9.00;;
56820;SDS011;42702;50.178;20.992;2022-12-07T07:44:02;23.30;;;9.40;;
56820;SDS011;42702;50.178;20.992;2022-12-07T07:46:30;18.80;;;9.50;;
56820;SDS011;42702;50.178;20.992;2022-12-07T07:49:01;16.60;;;8.80;;
56820;SDS011;42702;50.178;20.992;2022-12-07T07:51:29;16.80;;;8.40;;
56820;SDS011;42702;50.178;20.992;2022-12-07T07:53:57;18.30;;;9.00;;
56820;SDS011;42702;50.178;20.992;2022-12-07T07:56:25;14.20;;;7.90;;
56820;SDS011;42702;50.178;20.992;2022-12-07T07:58:53;20.30;;;8.20;;
56820;SDS011;42702;50.178;20.992;2022-12-07T08:01:22;12.80;;;7.20;;
56820;SDS011;42702;50.178;20.992;2022-12-07T08:03:50;14.10;;;8.40;;
56820;SDS011;42702;50.178;20.992;2022-12-07T08:06:18;27.00;;;11.90;;
56820;SDS011;42702;50.178;20.992;2022-12-07T08:08:46;13.30;;;6.70;;
56820;SDS011;42702;50.178;20.992;2022-12-07T08:11:14;21.30;;;9.70;;
56820;SDS011;42702;50.178;20.992;2022-12-07T08:13:44;18.50;;;8.20;;
56820;SDS011;42702;50.178;20.992;2022-12-07T08:16:14;15.40;;;7.80;;
56820;SDS011;42702;50.178;20.992;2022-12-07T08:18:43;22.30;;;9.50;;
56820;SDS011;42702;50.178;20.992;2022-12-07T08:21:12;24.90;;;10.70;;
56820;SDS011;42702;50.178;20.992;2022-12-07T08:23:42;15.20;;;7.50;;
56820;SDS011;42702;50.178;20.992;2022-12-07T08:26:10;18.00;;;9.30;;
56820;SDS011;42702;50.178;20.992;2022-12-07T08:28:41;13.40;;;7.90;;
56820;SDS011;42702;50.178;20.992;2022-12-07T08:31:14;11.10;;;7.40;;
56820;SDS011;42702;50.178;20.992;2022-12-07T08:33:46;17.40;;;8.70;;
56820;SDS011;42702;50.178;20.992;2022-12-07T08:36:15;12.10;;;6.90;;
56820;SDS011;42702;50.178;20.992;2022-12-07T08:38:45;13.60;;;6.10;;
56820;SDS011;42702;50.178;20.992;2022-12-07T08:41:33;15.60;;;7.40;;
56820;SDS011;42702;50.178;20.992;2022-12-07T08:44:01;18.20;;;7.80;;
56820;SDS011;42702;50.178;20.992;2022-12-07T08:51:35;19.70;;;8.90;;
56820;SDS011;42702;50.178;20.992;2022-12-07T08:54:05;18.70;;;9.40;;
56820;SDS011;42702;50.178;20.992;2022-12-07T08:56:36;18.10;;;9.20;;
56820;SDS011;42702;50.178;20.992;2022-12-07T08:59:05;13.60;;;6.30;;
56820;SDS011;42702;50.178;20.992;2022-12-07T09:01:34;16.20;;;7.50;;
56820;SDS011;42702;50.178;20.992;2022-12-07T09:04:02;11.20;;;5.80;;
56820;SDS011;42702;50.178;20.992;2022-12-07T09:06:30;11.10;;;5.00;;
56820;SDS011;42702;50.178;20.992;2022-12-07T09:08:59;16.80;;;9.70;;
56820;SDS011;42702;50.178;20.992;2022-12-07T09:11:29;12.20;;;7.30;;
56820;SDS011;42702;50.178;20.992;2022-12-07T09:13:57;19.80;;;8.50;;
56820;SDS011;42702;50.178;20.992;2022-12-07T09:16:25;13.50;;;7.60;;
56820;SDS011;42702;50.178;20.992;2022-12-07T09:18:53;11.10;;;5.20;;
56820;SDS011;42702;50.178;20.992;2022-12-07T09:21:21;18.40;;;8.30;;
56820;SDS011;42702;50.178;20.992;2022-12-07T09:23:50;19.30;;;8.60;;
56820;SDS011;42702;50.178;20.992;2022-12-07T09:26:18;19.60;;;8.40;;
56820;SDS011;42702;50.178;20.992;2022-12-07T09:28:46;10.50;;;4.80;;
56820;SDS011;42702;50.178;20.992;2022-12-07T09:31:14;21.30;;;9.20;;
56820;SDS011;42702;50.178;20.992;2022-12-07T09:33:55;14.50;;;6.90;;
56820;SDS011;42702;50.178;20.992;2022-12-07T09:36:28;14.10;;;8.20;;
56820;SDS011;42702;50.178;20.992;2022-12-07T09:41:25;15.60;;;8.30;;
56820;SDS011;42702;50.178;20.992;2022-12-07T09:43:57;16.30;;;7.80;;
56820;SDS011;42702;50.178;20.992;2022-12-07T09:46:34;17.70;;;6.50;;
56820;SDS011;42702;50.178;20.992;2022-12-07T09:49:05;14.80;;;7.80;;
56820;SDS011;42702;50.178;20.992;2022-12-07T09:51:40;21.70;;;10.00;;
56820;SDS011;42702;50.178;20.992;2022-12-07T09:54:09;15.90;;;9.70;;
56820;SDS011;42702;50.178;20.992;2022-12-07T09:56:43;11.80;;;6.80;;
56820;SDS011;42702;50.178;20.992;2022-12-07T09:59:13;12.30;;;7.40;;
56820;SDS011;42702;50.178;20.992;2022-12-07T10:01:47;17.30;;;8.10;;
56820;SDS011;42702;50.178;20.992;2022-12-07T10:04:18;13.70;;;6.80;;
56820;SDS011;42702;50.178;20.992;2022-12-07T10:06:52;16.30;;;9.70;;
56820;SDS011;42702;50.178;20.992;2022-12-07T10:09:20;11.10;;;5.80;;
56820;SDS011;42702;50.178;20.992;2022-12-07T10:12:00;14.00;;;8.30;;
56820;SDS011;42702;50.178;20.992;2022-12-07T10:14:40;33.60;;;12.60;;
56820;SDS011;42702;50.178;20.992;2022-12-07T10:17:40;21.20;;;10.80;;
56820;SDS011;42702;50.178;20.992;2022-12-07T10:23:04;21.70;;;9.70;;
56820;SDS011;42702;50.178;20.992;2022-12-07T10:25:41;15.80;;;7.00;;
56820;SDS011;42702;50.178;20.992;2022-12-07T10:28:11;16.30;;;9.40;;
56820;SDS011;42702;50.178;20.992;2022-12-07T10:30:49;19.20;;;7.40;;
56820;SDS011;42702;50.178;20.992;2022-12-07T10:36:15;17.10;;;8.60;;
56820;SDS011;42702;50.178;20.992;2022-12-07T10:38:46;12.60;;;6.60;;
56820;SDS011;42702;50.178;20.992;2022-12-07T10:41:34;12.40;;;6.70;;
56820;SDS011;42702;50.178;20.992;2022-12-07T10:44:02;14.10;;;7.70;;
56820;SDS011;42702;50.178;20.992;2022-12-07T10:46:46;20.80;;;8.40;;
56820;SDS011;42702;50.178;20.992;2022-12-07T10:54:42;20.80;;;10.10;;
56820;SDS011;42702;50.178;20.992;2022-12-07T10:57:40;19.80;;;9.90;;
56820;SDS011;42702;50.178;20.992;2022-12-07T11:00:16;20.30;;;10.20;;
56820;SDS011;42702;50.178;20.992;2022-12-07T11:02:57;17.00;;;8.90;;
56820;SDS011;42702;50.178;20.992;2022-12-07T11:08:03;15.20;;;7.00;;
56820;SDS011;42702;50.178;20.992;2022-12-07T11:20:57;14.50;;;8.50;;
56820;SDS011;42702;50.178;20.992;2022-12-07T11:38:17;10.40;;;5.80;;
56820;SDS011;42702;50.178;20.992;2022-12-07T11:40:56;11.60;;;7.50;;
56820;SDS011;42702;50.178;20.992;2022-12-07T11:43:52;15.10;;;8.60;;
56820;SDS011;42702;50.178;20.992;2022-12-07T11:46:33;8.90;;;6.60;;
56820;SDS011;42702;50.178;20.992;2022-12-07T11:49:39;16.10;;;7.80;;
56820;SDS011;42702;50.178;20.992;2022-12-07T11:52:22;18.80;;;11.20;;
56820;SDS011;42702;50.178;20.992;2022-12-07T11:55:06;13.10;;;7.30;;
56820;SDS011;42702;50.178;20.992;2022-12-07T11:57:49;23.10;;;12.50;;
56820;SDS011;42702;50.178;20.992;2022-12-07T12:00:22;17.90;;;10.40;;
56820;SDS011;42702;50.178;20.992;2022-12-07T12:02:52;18.50;;;9.70;;
56820;SDS011;42702;50.178;20.992;2022-12-07T12:05:29;19.60;;;10.50;;
56820;SDS011;42702;50.178;20.992;2022-12-07T12:08:17;17.90;;;8.40;;
56820;SDS011;42702;50.178;20.992;2022-12-07T12:22:55;21.00;;;9.90;;
56820;SDS011;42702;50.178;20.992;2022-12-07T12:25:28;20.00;;;11.10;;
56820;SDS011;42702;50.178;20.992;2022-12-07T12:27:59;18.10;;;10.80;;
56820;SDS011;42702;50.178;20.992;2022-12-07T12:33:42;15.00;;;8.60;;
56820;SDS011;42702;50.178;20.992;2022-12-07T12:38:50;19.10;;;9.40;;
56820;SDS011;42702;50.178;20.992;2022-12-07T12:50:12;18.80;;;8.40;;
56820;SDS011;42702;50.178;20.992;2022-12-07T12:52:49;19.10;;;10.60;;
56820;SDS011;42702;50.178;20.992;2022-12-07T12:55:28;16.00;;;9.40;;
56820;SDS011;42702;50.178;20.992;2022-12-07T13:00:47;13.80;;;8.40;;
56820;SDS011;42702;50.178;20.992;2022-12-07T13:03:27;15.60;;;8.00;;
56820;SDS011;42702;50.178;20.992;2022-12-07T13:08:45;18.40;;;10.80;;
56820;SDS011;42702;50.178;20.992;2022-12-07T13:11:18;22.70;;;11.10;;
56820;SDS011;42702;50.178;20.992;2022-12-07T13:17:10;31.40;;;13.80;;
56820;SDS011;42702;50.178;20.992;2022-12-07T13:20:00;19.30;;;10.90;;
56820;SDS011;42702;50.178;20.992;2022-12-07T13:27:39;43.80;;;19.50;;
56820;SDS011;42702;50.178;20.992;2022-12-07T13:30:17;112.30;;;42.20;;
56820;SDS011;42702;50.178;20.992;2022-12-07T13:32:54;126.20;;;44.90;;
56820;SDS011;42702;50.178;20.992;2022-12-07T13:35:27;149.40;;;54.20;;
56820;SDS011;42702;50.178;20.992;2022-12-07T13:37:56;125.80;;;46.50;;
56820;SDS011;42702;50.178;20.992;2022-12-07T13:40:24;102.20;;;41.00;;
56820;SDS011;42702;50.178;20.992;2022-12-07T13:43:03;72.80;;;26.70;;
56820;SDS011;42702;50.178;20.992;2022-12-07T13:45:33;129.30;;;42.90;;
56820;SDS011;42702;50.178;20.992;2022-12-07T13:48:30;68.20;;;26.30;;
56820;SDS011;42702;50.178;20.992;2022-12-07T13:51:02;130.50;;;40.70;;
56820;SDS011;42702;50.178;20.992;2022-12-07T13:53:31;75.40;;;30.00;;
56820;SDS011;42702;50.178;20.992;2022-12-07T13:56:00;71.00;;;29.60;;
56820;SDS011;42702;50.178;20.992;2022-12-07T13:58:30;97.30;;;37.10;;
56820;SDS011;42702;50.178;20.992;2022-12-07T14:00:59;44.00;;;18.00;;
56820;SDS011;42702;50.178;20.992;2022-12-07T14:03:34;37.30;;;17.70;;
56820;SDS011;42702;50.178;20.992;2022-12-07T14:06:17;28.40;;;14.90;;
56820;SDS011;42702;50.178;20.992;2022-12-07T14:08:49;25.70;;;13.90;;
56820;SDS011;42702;50.178;20.992;2022-12-07T14:11:27;37.90;;;16.30;;
56820;SDS011;42702;50.178;20.992;2022-12-07T14:13:58;44.40;;;16.20;;
56820;SDS011;42702;50.178;20.992;2022-12-07T14:16:36;29.30;;;14.50;;
56820;SDS011;42702;50.178;20.992;2022-12-07T14:19:06;27.80;;;12.70;;
56820;SDS011;42702;50.178;20.992;2022-12-07T14:22:34;24.60;;;10.80;;
56820;SDS011;42702;50.178;20.992;2022-12-07T14:27:47;10.30;;;8.00;;
56820;SDS011;42702;50.178;20.992;2022-12-07T14:30:28;16.30;;;9.70;;
56820;SDS011;42702;50.178;20.992;2022-12-07T14:33:03;27.60;;;10.60;;
56820;SDS011;42702;50.178;20.992;2022-12-07T14:35:33;31.70;;;13.60;;
56820;SDS011;42702;50.178;20.992;2022-12-07T14:38:01;28.50;;;14.00;;
56820;SDS011;42702;50.178;20.992;2022-12-07T14:40:29;41.60;;;17.50;;
56820;SDS011;42702;50.178;20.992;2022-12-07T14:43:02;33.00;;;13.90;;
56820;SDS011;42702;50.178;20.992;2022-12-07T14:45:33;49.40;;;18.60;;
56820;SDS011;42702;50.178;20.992;2022-12-07T14:48:01;43.50;;;17.70;;
56820;SDS011;42702;50.178;20.992;2022-12-07T14:50:49;56.20;;;26.50;;
56820;SDS011;42702;50.178;20.992;2022-12-07T14:53:41;47.60;;;21.30;;
56820;SDS011;42702;50.178;20.992;2022-12-07T14:56:16;50.50;;;20.30;;
56820;SDS011;42702;50.178;20.992;2022-12-07T14:58:44;41.90;;;19.00;;
56820;SDS011;42702;50.178;20.992;2022-12-07T15:01:15;43.90;;;20.00;;
56820;SDS011;42702;50.178;20.992;2022-12-07T15:03:43;54.50;;;22.80;;
56820;SDS011;42702;50.178;20.992;2022-12-07T15:06:15;34.80;;;13.30;;
56820;SDS011;42702;50.178;20.992;2022-12-07T15:08:46;46.00;;;20.20;;
56820;SDS011;42702;50.178;20.992;2022-12-07T15:11:17;49.20;;;20.60;;
56820;SDS011;42702;50.178;20.992;2022-12-07T15:13:46;37.20;;;15.40;;
56820;SDS011;42702;50.178;20.992;2022-12-07T15:16:33;29.10;;;12.90;;
56820;SDS011;42702;50.178;20.992;2022-12-07T15:19:22;42.50;;;17.90;;
56820;SDS011;42702;50.178;20.992;2022-12-07T15:21:56;27.20;;;12.10;;
56820;SDS011;42702;50.178;20.992;2022-12-07T15:24:26;37.00;;;16.50;;
56820;SDS011;42702;50.178;20.992;2022-12-07T15:26:54;32.20;;;17.30;;
56820;SDS011;42702;50.178;20.992;2022-12-07T15:29:22;30.70;;;15.00;;
56820;SDS011;42702;50.178;20.992;2022-12-07T15:31:51;37.80;;;16.70;;
56820;SDS011;42702;50.178;20.992;2022-12-07T15:34:25;48.80;;;21.60;;
56820;SDS011;42702;50.178;20.992;2022-12-07T15:37:04;61.60;;;25.60;;
56820;SDS011;42702;50.178;20.992;2022-12-07T15:39:33;40.40;;;16.90;;
56820;SDS011;42702;50.178;20.992;2022-12-07T15:42:02;24.40;;;10.70;;
56820;SDS011;42702;50.178;20.992;2022-12-07T15:44:30;28.80;;;13.20;;
56820;SDS011;42702;50.178;20.992;2022-12-07T15:47:16;47.90;;;17.30;;
56820;SDS011;42702;50.178;20.992;2022-12-07T15:49:45;41.70;;;17.50;;
56820;SDS011;42702;50.178;20.992;2022-12-07T15:52:13;26.00;;;12.50;;
56820;SDS011;42702;50.178;20.992;2022-12-07T15:54:41;24.10;;;12.70;;
56820;SDS011;42702;50.178;20.992;2022-12-07T15:57:09;32.10;;;12.20;;
56820;SDS011;42702;50.178;20.992;2022-12-07T15:59:37;31.80;;;12.60;;
56820;SDS011;42702;50.178;20.992;2022-12-07T16:02:05;17.30;;;6.50;;
56820;SDS011;42702;50.178;20.992;2022-12-07T16:04:33;24.50;;;11.80;;
56820;SDS011;42702;50.178;20.992;2022-12-07T16:07:02;25.10;;;10.50;;
56820;SDS011;42702;50.178;20.992;2022-12-07T16:09:30;32.50;;;14.50;;
56820;SDS011;42702;50.178;20.992;2022-12-07T16:11:58;26.60;;;13.60;;
56820;SDS011;42702;50.178;20.992;2022-12-07T16:14:26;48.60;;;19.20;;
56820;SDS011;42702;50.178;20.992;2022-12-07T16:16:54;33.40;;;15.30;;
56820;SDS011;42702;50.178;20.992;2022-12-07T16:19:23;42.90;;;19.10;;
56820;SDS011;42702;50.178;20.992;2022-12-07T16:21:51;31.40;;;16.70;;
56820;SDS011;42702;50.178;20.992;2022-12-07T16:24:19;28.50;;;14.20;;
56820;SDS011;42702;50.178;20.992;2022-12-07T16:26:47;28.00;;;14.30;;
56820;SDS011;42702;50.178;20.992;2022-12-07T16:29:17;27.90;;;13.80;;
56820;SDS011;42702;50.178;20.992;2022-12-07T16:31:48;19.80;;;9.70;;
56820;SDS011;42702;50.178;20.992;2022-12-07T16:34:17;10.90;;;8.00;;
56820;SDS011;42702;50.178;20.992;2022-12-07T16:36:46;19.60;;;10.10;;
56820;SDS011;42702;50.178;20.992;2022-12-07T16:39:30;28.70;;;14.10;;
56820;SDS011;42702;50.178;20.992;2022-12-07T16:41:59;26.20;;;14.50;;
56820;SDS011;42702;50.178;20.992;2022-12-07T16:44:27;19.00;;;10.50;;
56820;SDS011;42702;50.178;20.992;2022-12-07T16:46:56;21.70;;;12.80;;
56820;SDS011;42702;50.178;20.992;2022-12-07T16:49:24;19.30;;;10.80;;
56820;SDS011;42702;50.178;20.992;2022-12-07T16:51:52;15.40;;;8.50;;